Flight Track Log - Related Links

Times and Time Zones

All times are in EDT time to prevent confusion due to time zone crossing. See the EJA659 flight status page for this flight to view local times or setup timezone preferences in your user account.

Time Position Orientation Groundspeed Altitude Reporting Facility
EDT Latitude Longitude Course Direction KTS MPH feet Rate Location/Type
Tue 08:27:49 AM 35.8606 -78.8033 239° Southwest 157 181 1,400  Level Washington Center
Tue 08:28:59 AM 35.8275 -78.8711 265° West 227 261 5,100 3,802 Climbing Washington Center
Tue 08:30:00 AM 35.8208 -78.9606 263° West 248 285 9,700 3,787 Climbing Washington Center
Tue 08:31:01 AM 35.8117 -79.0550 274° West 279 321 12,800 3,227 Climbing Washington Center
Tue 08:31:59 AM 35.8189 -79.1706 269° West 308 354 16,100 3,250 Climbing Washington Center
Tue 08:33:01 AM 35.8175 -79.2806 267° West 343 395 19,300 2,655 Climbing Washington Center
Tue 08:33:52 AM 35.8136 -79.3858 269° West 348 400 21,100 1,568 Climbing Atlanta Center
Tue 08:34:52 AM 35.8119 -79.5114 272° West 359 413 22,200 1,000 Climbing Atlanta Center
Tue 08:35:52 AM 35.8150 -79.6522 274° West 373 429 23,100 450 Climbing Atlanta Center
Tue 08:36:52 AM 35.8219 -79.7850 276° West 378 435 23,100 1,050 Level Atlanta Center
Tue 08:37:52 AM 35.8325 -79.9097 274° West 384 442 25,200 2,250 Climbing Atlanta Center
Tue 08:38:52 AM 35.8408 -80.0425 276° West 384 442 27,600 2,400 Climbing Atlanta Center
Tue 08:39:52 AM 35.8508 -80.1547 305° West 379 436 30,000 2,200 Climbing Atlanta Center
Tue 08:40:52 AM 35.9039 -80.2472 329° Northwest 344 396 32,000 1,800 Climbing Atlanta Center
Tue 08:41:52 AM 35.9869 -80.3100 311° West 329 379 33,600 1,400 Climbing Atlanta Center
Tue 08:42:52 AM 36.0522 -80.4019 312° West 334 384 34,800 1,100 Climbing Atlanta Center
Tue 08:43:52 AM 36.1175 -80.4917 310° West 345 397 35,800 900 Climbing Atlanta Center
Tue 08:44:52 AM 36.1894 -80.5964 311° West 356 410 36,600 850 Climbing Atlanta Center
Tue 08:45:52 AM 36.2567 -80.6914 310° West 362 417 37,500 850 Climbing Atlanta Center
Tue 08:46:52 AM 36.3217 -80.7867 311° West 362 417 38,300 850 Climbing Atlanta Center
Tue 08:47:52 AM 36.3867 -80.8794 312° West 362 417 39,200 850 Climbing Atlanta Center
Tue 08:48:52 AM 36.4539 -80.9722 309° West 367 422 40,000 400 Climbing Atlanta Center
Tue 08:49:52 AM 36.5081 -81.0556 310° West 361 415 40,000  Level Atlanta Center
Tue 08:50:52 AM 36.5750 -81.1539 310° West 366 421 40,000  Level Atlanta Center
Tue 08:52:47 AM 36.7122 -81.3550 311° West 389 448 40,000  Level Indianapolis Center
Tue 08:53:47 AM 36.7744 -81.4439 311° West 378 435 40,000  Level Indianapolis Center
Tue 08:54:47 AM 36.8492 -81.5508 311° West 372 428 40,000  Level Indianapolis Center
Tue 08:55:47 AM 36.9133 -81.6425 309° West 365 420 40,000  Level Indianapolis Center
Tue 08:56:47 AM 36.9753 -81.7372 310° West 360 414 40,000  Level Indianapolis Center
Tue 08:57:47 AM 37.0394 -81.8319 310° West 355 409 40,000  Level Indianapolis Center
Tue 08:58:47 AM 37.1011 -81.9242 311° West 349 402 40,000  Level Indianapolis Center
Tue 08:59:47 AM 37.1672 -82.0194 310° West 349 402 40,000  Level Indianapolis Center
Tue 09:00:47 AM 37.2308 -82.1144 310° West 354 407 40,000  Level Indianapolis Center
Tue 09:01:47 AM 37.2947 -82.2100 309° West 354 407 40,000  Level Indianapolis Center
Tue 09:02:47 AM 37.3583 -82.3081 310° West 354 407 40,000  Level Indianapolis Center
Tue 09:03:47 AM 37.4219 -82.4036 310° West 359 413 40,000  Level Indianapolis Center
Tue 09:04:47 AM 37.4875 -82.5022 309° West 359 413 40,000  Level Indianapolis Center
Tue 09:05:47 AM 37.5508 -82.6008 311° West 364 419 40,000  Level Indianapolis Center
Tue 09:06:48 AM 37.6164 -82.6969 309° West 369 425 40,000  Level Indianapolis Center
Tue 09:07:47 AM 37.6817 -82.7986 310° West 369 425 40,000  Level Indianapolis Center
Tue 09:08:47 AM 37.7447 -82.8953 310° West 369 425 40,000  Level Indianapolis Center
Tue 09:09:47 AM 37.8081 -82.9919 318° Northwest 364 419 40,000  Level Indianapolis Center
Tue 09:10:47 AM 37.8833 -83.0781 333° Northwest 364 419 40,000 -50 Level Indianapolis Center
Tue 09:11:47 AM 37.9711 -83.1356 333° Northwest 364 419 39,900  Descending Indianapolis Center
Tue 09:12:47 AM 38.0611 -83.1931 332° Northwest 359 413 40,000 50 Climbing Indianapolis Center
Tue 09:13:47 AM 38.1511 -83.2533 333° Northwest 359 413 40,000  Level Indianapolis Center
Tue 09:14:47 AM 38.2408 -83.3111 333° Northwest 359 413 40,000  Level Indianapolis Center
Tue 09:15:47 AM 38.3286 -83.3692 333° Northwest 359 413 40,000  Level Indianapolis Center
Tue 09:16:47 AM 38.4183 -83.4272 333° Northwest 359 413 40,000  Level Indianapolis Center
Tue 09:17:47 AM 38.5058 -83.4853 332° Northwest 359 413 40,000  Level Indianapolis Center
Tue 09:18:47 AM 38.5956 -83.5464 335° Northwest 359 413 40,000  Level Indianapolis Center
Tue 09:19:47 AM 38.6831 -83.5994 332° Northwest 357 411 40,000  Level Indianapolis Center
Tue 09:20:47 AM 38.7728 -83.6608 332° Northwest 357 411 40,000  Level Indianapolis Center
Tue 09:21:47 AM 38.8625 -83.7225 332° Northwest 357 411 40,000  Level Indianapolis Center
Tue 09:22:47 AM 38.9417 -83.7758 333° Northwest 357 411 40,000  Level Indianapolis Center
Tue 09:23:47 AM 39.0311 -83.8350 332° Northwest 357 411 40,000  Level Indianapolis Center
Tue 09:24:47 AM 39.1186 -83.8942 332° Northwest 363 418 40,000  Level Indianapolis Center
Tue 09:25:47 AM 39.2100 -83.9564 332° Northwest 357 411 40,000  Level Indianapolis Center
Tue 09:26:47 AM 39.2975 -84.0158 333° Northwest 357 411 40,000  Level Indianapolis Center
Tue 09:27:47 AM 39.3953 -84.0808 331° Northwest 357 411 40,000  Level Indianapolis Center
Tue 09:28:47 AM 39.4844 -84.1461 333° Northwest 357 411 40,000  Level Indianapolis Center
Tue 09:29:47 AM 39.5739 -84.2061 333° Northwest 357 411 40,000  Level Indianapolis Center
Tue 09:30:47 AM 39.6653 -84.2664 332° Northwest 362 417 40,000  Level Indianapolis Center
Tue 09:31:47 AM 39.7567 -84.3294 332° Northwest 368 423 40,000 -300 Level Indianapolis Center
Tue 09:32:47 AM 39.8458 -84.3925 332° Northwest 374 430 39,400 -833 Descending Indianapolis Center
Tue 09:34:47 AM 40.0242 -84.5167 333° Northwest 379 436 37,500 -967 Descending Indianapolis Center
Tue 09:35:47 AM 40.1153 -84.5775 331° Northwest 372 428 36,500 -1,050 Descending Indianapolis Center
Tue 09:36:47 AM 40.2022 -84.6414 327° Northwest 364 419 35,400 -1,100 Descending Indianapolis Center
Tue 09:37:47 AM 40.2892 -84.7164 322° Northwest 364 419 34,300 -1,041 Descending Indianapolis Center
Tue 09:40:03 AM 40.4731 -84.9086 322° Northwest 354 407 32,000 -1,041 Descending Chicago Center
Tue 09:41:03 AM 40.5492 -84.9856 322° Northwest 348 400 30,900 -1,000 Descending Chicago Center
Tue 09:42:03 AM 40.6231 -85.0628 321° Northwest 339 390 30,000 -650 Descending Chicago Center
Tue 09:43:03 AM 40.6903 -85.1353 321° Northwest 333 383 29,600 -700 Descending Chicago Center
Tue 09:44:03 AM 40.7619 -85.2128 323° Northwest 319 367 28,600 -1,000 Descending Chicago Center
Tue 09:45:03 AM 40.8311 -85.2825 322° Northwest 324 373 27,600 -1,000 Descending Chicago Center
Tue 09:46:03 AM 40.9006 -85.3553 320° Northwest 318 366 26,600 -1,000 Descending Chicago Center
Tue 09:47:03 AM 40.9656 -85.4283 321° Northwest 313 360 25,600 -1,050 Descending Chicago Center
Tue 09:48:03 AM 41.0347 -85.5014 321° Northwest 319 367 24,500 -950 Descending Chicago Center
Tue 09:49:03 AM 41.0953 -85.5667 321° Northwest 314 361 23,700 -900 Descending Chicago Center
Tue 09:50:03 AM 41.1647 -85.6425 306° West 314 361 22,700 -1,200 Descending Chicago Center
Tue 09:51:03 AM 41.2200 -85.7444 302° West 322 371 21,300 -1,550 Descending Chicago Center
Tue 09:52:03 AM 41.2669 -85.8439 302° West 322 371 19,600 -1,750 Descending Chicago Center
Tue 09:53:03 AM 41.3161 -85.9492 303° West 322 371 17,800 -1,700 Descending Chicago Center
Tue 09:54:03 AM 41.3647 -86.0492 301° West 327 376 16,200 -1,550 Descending Chicago Center
Tue 09:55:03 AM 41.4094 -86.1492 302° West 327 376 14,700 -1,550 Descending Chicago Center
Tue 09:56:03 AM 41.4558 -86.2467 300° West 322 371 13,100 -1,450 Descending Chicago Center
Tue 09:57:03 AM 41.4914 -86.3281 279° West 322 371 11,800 -1,600 Descending Chicago Center
Tue 09:58:03 AM 41.5075 -86.4661 271° West 314 361 9,900 -950 Descending Chicago Center
Tue 09:59:03 AM 41.5083 -86.5853 272° West 332 382 9,900 -357 Level Chicago Center
Tue 10:02:32 AM 41.5167 -86.9667 270° West 243 280 8,300 -602 Descending Chicago TRACON
Tue 10:03:32 AM 41.5167 -87.0500 270° West 260 299 7,200 -1,000 Descending Chicago TRACON
Tue 10:04:32 AM 41.5167 -87.1500 270° West 279 321 6,300 -571 Descending Chicago TRACON
Tue 10:05:38 AM 41.5167 -87.2667 270° West 270 311 6,000 -143 Descending Chicago TRACON
Tue 10:06:38 AM 41.5167 -87.3667 270° West 263 303 6,000 -300 Level Chicago TRACON
Tue 10:07:38 AM 41.5167 -87.4667 285° West 263 303 5,400 -800 Descending Chicago TRACON
Tue 10:08:38 AM 41.5333 -87.5500 304° West 264 304 4,400 -991 Descending Chicago TRACON
Tue 10:09:33 AM 41.5667 -87.6167 315° West 245 282 3,500 -939 Descending Chicago TRACON
Tue 10:10:33 AM 41.6167 -87.6833 304° West 232 267 2,600 -476 Descending Chicago TRACON
Tue 10:11:39 AM 41.6500 -87.7500 312° West 205 236 2,500 -48 Descending Chicago TRACON
Tue 10:12:39 AM 41.6833 -87.8000 346° North 165 190 2,500 -100 Level Chicago TRACON
Tue 10:13:39 AM 41.7333 -87.8167 37° Northeast 154 177 2,300 -550 Descending Chicago TRACON
Tue 10:14:39 AM 41.7500 -87.8000 37° Northeast 133 153 1,400 -900 Descending Chicago TRACON

Login

Don't have an account? Register now (free) for customized features, flight alerts, and more!